EmailTwitter


Surface observations / United Kingdom / EGTE (03839)

Regions: Quebec | Canada | USA | Europe | France | UK | Elsewhere
Station
Display
Info & Location for EGTE (03839) | Help decoding METAR

Weather Conditions observed on 2018/07/21 at 21:20 UTC at EXETER AIRPORT, UK (EGTE)

Sky conditions: few clouds.

Temperature: 19.0 Celsius.

Dewpoint: 15.0 Celsius.

Relative Humidity: 78%

Humidex: 23.

Winds: West-northwest at 9 km/h or 5 knots.

Mean Sea level Pressure: 101.60 kilopascals.

Horizontal visibility: 6.21 statute miles or 9.94 kilometers.

Coded METAR:

EGTE 212120Z 29005KT 260V320 9999 FEW035 19/15 Q1016=